Terminal Aerodrome Forecast
Issued by NWS

Home | Current Version | Previous Version | Text Only | Print | Product List | Glossary On
Versions: 1 2 3 4 5 6 7 8 9 10 11 12 13 14 15 16 17 18 19 20 21 22 23 24 25 26 27 28 29 30 31 32 33 34 35 36 37 38 39 40 41 42
746
FTUS44 KLIX 071720
TAFHDC
TAF
KHDC 071720Z 0718/0818 00000KT P6SM BKN010 OVC030
     FM072100 00000KT P6SM BKN025 BKN035
     FM080500 06004KT P6SM BKN015
     FM080900 04006KT P6SM OVC008
     FM081000 04007KT P6SM OVC003
     FM081700 02010KT P6SM BKN020=

USA.gov is the U.S. government's official web portal to all federal, state and local government web resources and services.